This is the latest recevied weather packets stored in our database for station/object VK2OB. If no packets are shown the sender has not sent any weather packets the latest 10 day(s).
| Time | Temp. | Humidity | Pressure | Rain* | Wind** | Luminosity | Snow |
|---|---|---|---|---|---|---|---|
| 1777605136 | 25° C | 48% | 1027 hPa | 0 mm | - | - | - |
| 1777604837 | 25° C | 44% | 1027.1 hPa | 0 mm | - | - | - |
| 1777604538 | 25° C | 44% | 1027.2 hPa | 0 mm | - | - | - |
| 1777604238 | 25.56° C | 45% | 1027.2 hPa | 0 mm | - | - | - |
| 1777603938 | 25.56° C | 47% | 1027.2 hPa | 0 mm | - | - | - |
| 1777603640 | 25.56° C | 46% | 1027.4 hPa | 0 mm | - | - | - |
| 1777603341 | 25.56° C | 47% | 1027.4 hPa | 0 mm | - | - | - |
| 1777603042 | 25.56° C | 46% | 1027.5 hPa | 0 mm | - | - | - |
| 1777602743 | 25.56° C | 46% | 1027.6 hPa | 0 mm | - | - | - |
| 1777602444 | 25.56° C | 45% | 1027.6 hPa | 0 mm | - | - | - |
| 1777602145 | 26.11° C | 46% | 1027.7 hPa | 0 mm | - | - | - |
| 1777601846 | 26.67° C | 45% | 1027.8 hPa | 0 mm | - | - | - |
| 1777601547 | 27.22° C | 42% | 1027.8 hPa | 0 mm | - | - | - |
| 1777600949 | 28.89° C | 39% | 1028 hPa | 0 mm | - | - | - |
| 1777600650 | 29.44° C | 40% | 1028.2 hPa | 0 mm | - | - | - |
| 1777600351 | 29.44° C | 41% | 1028.3 hPa | 0 mm | - | - | - |
| 1777586880 | 17.78° C | 92% | 1029.5 hPa | 0 mm | - | - | - |
| 1777585385 | 16.67° C | 94% | 1029.4 hPa | 0 mm | - | - | - |
| 1777584189 | 16.11° C | 94% | 1029.3 hPa | 0 mm | - | - | - |
| 1777583890 | 16.11° C | 95% | 1029.3 hPa | 0 mm | - | - | - |
| 1777583292 | 15.56° C | 95% | 1029.2 hPa | 0 mm | - | - | - |
| 1777582694 | 15.56° C | 94% | 1029.1 hPa | 0 mm | - | - | - |
| 1777580600 | 15° C | 92% | 1029.1 hPa | 0 mm | - | - | - |
| 1777579105 | 16.11° C | 91% | 1028.6 hPa | 0 mm | - | - | - |
| 1777578806 | 16.67° C | 92% | 1028.5 hPa | 0 mm | - | - | - |
* Rain latest hour (hover to see other rain measurements)
** Current wind speed in m/s (hover to see current wind gust speed)